createdAt,value
2023-03-05T00:00:15.866Z,6.00
2023-03-05T00:02:46.109Z,6.02
2023-03-05T00:05:18.582Z,6.04
2023-03-05T00:07:49.091Z,6.09
2023-03-05T00:10:20.766Z,6.12
2023-03-05T00:12:50.534Z,6.14
2023-03-05T00:15:20.601Z,6.15
2023-03-05T00:17:50.485Z,6.16
2023-03-05T00:20:23.303Z,6.17
2023-03-05T00:22:53.137Z,6.11
2023-03-05T00:25:22.969Z,6.06
2023-03-05T00:27:52.882Z,5.98
2023-03-05T00:30:22.891Z,5.92
2023-03-05T00:32:52.789Z,5.88
2023-03-05T00:35:25.306Z,5.85
2023-03-05T00:37:55.326Z,5.80
2023-03-05T00:40:25.441Z,5.71
2023-03-05T00:42:55.350Z,5.68
2023-03-05T00:45:25.187Z,5.64
2023-03-05T00:47:55.775Z,5.58
2023-03-05T00:50:28.567Z,5.51
2023-03-05T00:52:58.481Z,5.49
2023-03-05T00:55:28.323Z,5.51
2023-03-05T00:57:58.326Z,5.51
2023-03-05T01:00:28.438Z,5.51
2023-03-05T01:02:58.307Z,5.48
2023-03-05T01:05:34.074Z,5.50
2023-03-05T01:08:04.427Z,5.50
2023-03-05T01:10:34.336Z,5.49
2023-03-05T01:13:04.361Z,5.49
2023-03-05T01:15:34.186Z,5.49
2023-03-05T01:18:03.989Z,5.45
2023-03-05T01:20:38.245Z,5.42
2023-03-05T01:23:08.022Z,5.38
2023-03-05T01:25:37.876Z,5.34
2023-03-05T01:28:11.699Z,5.34
2023-03-05T01:30:41.533Z,5.34
2023-03-05T01:33:11.357Z,5.37
2023-03-05T01:35:43.815Z,5.39
2023-03-05T01:38:18.175Z,5.36
2023-03-05T01:40:48.292Z,5.37
2023-03-05T01:43:29.912Z,5.39
2023-03-05T01:46:35.006Z,5.41
2023-03-05T01:49:13.721Z,5.41
2023-03-05T01:51:54.099Z,5.37
2023-03-05T01:54:27.629Z,5.35
2023-03-05T01:57:00.181Z,5.37
2023-03-05T01:59:32.396Z,5.34
2023-03-05T02:02:04.096Z,5.32
2023-03-05T02:04:40.994Z,5.31
2023-03-05T02:07:14.576Z,5.30
2023-03-05T02:09:47.136Z,5.27
2023-03-05T02:12:17.929Z,5.26
2023-03-05T02:14:51.447Z,5.24
2023-03-05T02:17:21.255Z,5.23
2023-03-05T02:19:56.360Z,5.25
2023-03-05T02:22:28.752Z,5.24
2023-03-05T02:24:58.538Z,5.24
2023-03-05T02:27:35.167Z,5.25
2023-03-05T02:30:05.911Z,5.25
2023-03-05T02:32:35.874Z,5.25
2023-03-05T02:35:06.322Z,5.24
2023-03-05T02:37:39.434Z,5.18
2023-03-05T02:40:13.269Z,5.06
2023-03-05T02:42:43.600Z,4.97
2023-03-05T02:45:17.325Z,4.91
2023-03-05T02:47:47.369Z,4.90
2023-03-05T02:50:17.667Z,4.90
2023-03-05T02:52:50.514Z,4.92
2023-03-05T02:55:20.782Z,4.90
2023-03-05T02:57:50.675Z,4.93
2023-03-05T03:00:21.220Z,4.95
2023-03-05T03:02:51.185Z,4.97
2023-03-05T03:05:21.295Z,5.01
2023-03-05T03:07:53.922Z,5.03
2023-03-05T03:10:23.873Z,5.05
2023-03-05T03:12:53.850Z,5.07
2023-03-05T03:15:26.328Z,5.06
2023-03-05T03:17:57.160Z,5.06
2023-03-05T03:20:27.226Z,5.06
2023-03-05T03:22:59.736Z,5.04
2023-03-05T03:25:29.806Z,4.90
2023-03-05T03:27:59.702Z,4.75
2023-03-05T03:30:29.613Z,4.65
2023-03-05T03:32:59.500Z,4.60
2023-03-05T03:35:29.480Z,4.61
2023-03-05T03:38:04.459Z,4.63
2023-03-05T03:40:35.894Z,4.66
2023-03-05T03:43:05.879Z,4.69
2023-03-05T03:45:35.709Z,4.73
2023-03-05T03:48:05.623Z,4.78
2023-03-05T03:50:35.403Z,4.83
2023-03-05T03:53:07.843Z,4.88
2023-03-05T03:55:38.389Z,4.92
2023-03-05T03:58:08.316Z,4.92
2023-03-05T04:00:38.532Z,4.91
2023-03-05T04:03:08.339Z,4.91
2023-03-05T04:05:38.352Z,4.93
2023-03-05T04:08:12.393Z,4.92
2023-03-05T04:10:42.743Z,4.93
2023-03-05T04:13:12.591Z,4.92
2023-03-05T04:15:42.492Z,4.94
2023-03-05T04:18:12.906Z,4.94
2023-03-05T04:20:42.804Z,4.94
2023-03-05T04:23:17.324Z,4.94
2023-03-05T04:25:47.275Z,4.96
2023-03-05T04:28:17.901Z,4.96
2023-03-05T04:30:47.814Z,4.96
2023-03-05T04:33:23.176Z,4.96
2023-03-05T04:35:55.602Z,4.97
2023-03-05T04:38:28.794Z,5.00
2023-03-05T04:40:58.655Z,4.97
2023-03-05T04:43:28.459Z,4.94
2023-03-05T04:45:58.975Z,4.92
2023-03-05T04:48:29.044Z,4.90
2023-03-05T04:50:59.521Z,4.88
2023-03-05T04:53:31.988Z,4.88
2023-03-05T04:56:04.083Z,4.87
2023-03-05T04:58:33.979Z,4.86
2023-03-05T05:01:05.190Z,4.87
2023-03-05T05:03:35.719Z,4.87
2023-03-05T05:06:05.673Z,4.87
2023-03-05T05:08:38.340Z,4.87
2023-03-05T05:11:10.814Z,4.86
2023-03-05T05:13:40.780Z,4.86
2023-03-05T05:16:11.523Z,4.85
2023-03-05T05:18:41.490Z,4.86
2023-03-05T05:21:12.058Z,4.85
2023-03-05T05:23:45.360Z,4.86
2023-03-05T05:26:17.210Z,4.86
2023-03-05T05:28:47.230Z,4.87
2023-03-05T05:31:19.330Z,4.87
2023-03-05T05:33:50.040Z,4.89
2023-03-05T05:36:22.623Z,4.89
2023-03-05T05:38:55.186Z,4.89
2023-03-05T05:41:25.367Z,4.89
2023-03-05T05:43:55.360Z,4.89
2023-03-05T05:46:25.674Z,4.90
2023-03-05T05:48:55.583Z,4.88
2023-03-05T05:51:26.426Z,4.89
2023-03-05T05:53:58.859Z,4.88
2023-03-05T05:56:31.788Z,4.89
2023-03-05T05:59:01.659Z,4.88
2023-03-05T06:01:34.141Z,4.87
2023-03-05T06:04:04.756Z,4.85
2023-03-05T06:06:35.142Z,4.84
2023-03-05T06:09:08.085Z,4.82
2023-03-05T06:11:37.977Z,4.79
2023-03-05T06:14:22.063Z,4.75
2023-03-05T06:16:54.310Z,4.72
2023-03-05T06:19:24.157Z,4.71
2023-03-05T06:21:53.975Z,4.73
2023-03-05T06:24:26.527Z,4.74
2023-03-05T06:26:56.319Z,4.78
2023-03-05T06:29:26.082Z,4.81
2023-03-05T06:31:55.885Z,4.83
2023-03-05T06:34:25.832Z,4.85
2023-03-05T06:36:55.701Z,4.89
2023-03-05T06:39:28.127Z,4.92
2023-03-05T06:41:57.879Z,4.93
2023-03-05T06:44:27.695Z,4.93
2023-03-05T06:47:01.448Z,4.86
2023-03-05T06:49:33.600Z,4.80
2023-03-05T06:52:04.301Z,4.75
2023-03-05T06:54:36.824Z,4.71
2023-03-05T06:57:06.862Z,4.72
2023-03-05T06:59:36.739Z,4.76
2023-03-05T07:02:06.662Z,4.77
2023-03-05T07:04:36.601Z,4.83
2023-03-05T07:07:06.517Z,4.87
2023-03-05T07:09:43.091Z,4.90
2023-03-05T07:12:13.516Z,4.90
2023-03-05T07:14:51.310Z,4.92
2023-03-05T07:17:21.203Z,4.94
2023-03-05T07:19:52.527Z,4.99
2023-03-05T07:22:27.699Z,5.05
2023-03-05T07:25:01.403Z,5.08
2023-03-05T07:27:31.407Z,5.12
2023-03-05T07:30:01.579Z,5.16
2023-03-05T07:32:31.561Z,5.19
2023-03-05T07:35:01.784Z,5.19
2023-03-05T07:37:31.788Z,5.25
2023-03-05T07:40:04.858Z,5.30
2023-03-05T07:42:35.610Z,5.30
2023-03-05T07:45:05.638Z,5.32
2023-03-05T07:47:35.570Z,5.30
2023-03-05T07:50:06.515Z,5.29
2023-03-05T07:52:36.434Z,5.33
2023-03-05T07:55:09.482Z,5.34
2023-03-05T07:57:39.375Z,5.37
2023-03-05T08:00:11.263Z,5.42
2023-03-05T08:02:41.122Z,5.50
2023-03-05T08:05:11.531Z,5.57
2023-03-05T08:07:41.377Z,5.61
2023-03-05T08:10:15.307Z,5.68
2023-03-05T08:12:45.162Z,5.71
2023-03-05T08:15:15.164Z,5.77
2023-03-05T08:17:45.089Z,5.80
2023-03-05T08:20:16.386Z,5.86
2023-03-05T08:22:50.816Z,5.93
2023-03-05T08:25:32.156Z,6.07
2023-03-05T08:28:02.045Z,6.21
2023-03-05T08:30:31.957Z,6.38
2023-03-05T08:33:01.861Z,6.40
2023-03-05T08:35:31.709Z,6.19
2023-03-05T08:38:01.528Z,6.05
2023-03-05T08:40:41.642Z,5.91
2023-03-05T08:43:12.290Z,5.72
2023-03-05T08:45:42.374Z,5.67
2023-03-05T08:48:13.762Z,5.66
2023-03-05T08:50:43.609Z,5.62
2023-03-05T08:53:14.248Z,5.68
2023-03-05T08:55:46.633Z,5.75
2023-03-05T08:58:16.396Z,5.85
2023-03-05T09:00:47.102Z,5.96
2023-03-05T09:03:16.980Z,6.06
2023-03-05T09:05:47.081Z,6.18
2023-03-05T09:08:17.078Z,6.30
2023-03-05T09:10:49.940Z,6.42
2023-03-05T09:13:19.962Z,6.54
2023-03-05T09:15:58.213Z,6.63
2023-03-05T09:18:29.881Z,6.77
2023-03-05T09:21:03.671Z,6.86
2023-03-05T09:23:33.764Z,6.97
2023-03-05T09:26:08.814Z,7.10
2023-03-05T09:31:24.168Z,7.36
2023-03-05T09:33:54.094Z,7.43
2023-03-05T09:36:26.674Z,7.46
2023-03-05T09:38:56.820Z,7.51
2023-03-05T09:41:37.985Z,7.57
2023-03-05T09:44:26.516Z,7.62
2023-03-05T09:47:08.915Z,7.70
2023-03-05T09:49:52.623Z,7.75
2023-03-05T09:52:26.518Z,7.71
2023-03-05T09:54:58.227Z,7.73
2023-03-05T09:57:35.409Z,7.75
2023-03-05T10:00:10.428Z,7.76
2023-03-05T10:02:49.087Z,7.76
2023-03-05T10:05:23.590Z,7.76
2023-03-05T10:08:01.223Z,7.78
2023-03-05T10:10:50.239Z,7.80
2023-03-05T10:13:27.394Z,7.87
2023-03-05T10:16:09.993Z,7.90
2023-03-05T10:18:49.280Z,7.94
2023-03-05T10:21:24.206Z,7.92
2023-03-05T10:24:02.302Z,7.84
2023-03-05T10:26:47.860Z,7.79
2023-03-05T10:29:40.639Z,7.75
2023-03-05T10:32:25.555Z,7.71
2023-03-05T10:35:22.884Z,7.63
2023-03-05T10:38:14.320Z,7.52
2023-03-05T10:40:53.817Z,7.48
2023-03-05T10:43:30.573Z,7.48
2023-03-05T10:46:06.352Z,7.51
2023-03-05T10:48:43.641Z,7.57
2023-03-05T10:51:19.408Z,7.59
2023-03-05T10:53:57.812Z,7.63
2023-03-05T10:56:29.497Z,7.65
2023-03-05T10:58:59.281Z,7.68
2023-03-05T11:01:35.990Z,7.73
2023-03-05T11:07:05.101Z,7.74
2023-03-05T11:09:35.326Z,7.79
2023-03-05T11:12:15.770Z,7.87
2023-03-05T11:16:06.660Z,7.91
2023-03-05T11:18:39.118Z,7.82
2023-03-05T11:21:13.916Z,7.79
2023-03-05T11:23:43.906Z,7.78
2023-03-05T11:26:25.441Z,7.77
2023-03-05T11:29:03.317Z,7.71
2023-03-05T11:31:36.233Z,7.69
2023-03-05T11:34:10.768Z,7.71
2023-03-05T11:36:42.361Z,7.76
2023-03-05T11:39:14.620Z,7.80
2023-03-05T11:41:46.828Z,7.82
2023-03-05T11:44:24.362Z,7.80
2023-03-05T11:46:58.505Z,7.82
2023-03-05T11:49:35.182Z,7.88
2023-03-05T11:52:12.160Z,7.88
2023-03-05T11:54:51.048Z,7.90
2023-03-05T11:57:24.115Z,7.95
2023-03-05T11:59:58.519Z,8.04
2023-03-05T12:02:31.146Z,8.09
2023-03-05T12:05:06.980Z,8.06
2023-03-05T12:07:41.180Z,8.03
2023-03-05T12:10:19.067Z,8.06
2023-03-05T12:12:54.269Z,8.05
2023-03-05T12:15:50.972Z,8.06
2023-03-05T12:18:41.479Z,8.09
2023-03-05T12:21:20.614Z,8.08
2023-03-05T12:23:53.741Z,8.14
2023-03-05T12:27:09.374Z,8.19
2023-03-05T12:29:49.208Z,8.24
2023-03-05T12:33:01.304Z,8.29
2023-03-05T12:35:41.195Z,8.29
2023-03-05T12:38:35.055Z,8.31
2023-03-05T12:41:52.349Z,8.36
2023-03-05T12:44:25.994Z,8.38
2023-03-05T12:47:23.886Z,8.43
2023-03-05T12:50:03.352Z,8.41
2023-03-05T12:52:35.213Z,8.44
2023-03-05T12:55:20.380Z,8.52
2023-03-05T12:57:52.986Z,8.52
2023-03-05T13:00:33.860Z,8.49
2023-03-05T13:03:07.696Z,8.45
2023-03-05T13:05:52.536Z,8.38
2023-03-05T13:08:27.639Z,8.28
2023-03-05T13:11:03.543Z,8.18
2023-03-05T13:13:38.039Z,8.16
2023-03-05T13:16:08.912Z,8.14
2023-03-05T13:18:42.900Z,8.10
2023-03-05T13:21:21.524Z,8.03
2023-03-05T13:23:57.977Z,7.99
2023-03-05T13:26:32.031Z,7.99
2023-03-05T13:29:14.424Z,8.01
2023-03-05T13:31:46.073Z,8.02
2023-03-05T13:34:20.749Z,8.05
2023-03-05T13:36:56.187Z,8.06
2023-03-05T13:39:29.628Z,8.11
2023-03-05T13:42:05.601Z,8.16
2023-03-05T13:44:37.705Z,8.19
2023-03-05T13:47:13.503Z,8.21
2023-03-05T13:49:44.188Z,8.18
2023-03-05T13:52:15.938Z,8.14
2023-03-05T13:54:45.862Z,8.11
2023-03-05T13:57:35.868Z,8.12
2023-03-05T14:00:06.754Z,8.08
2023-03-05T14:02:36.854Z,8.06
2023-03-05T14:05:06.947Z,8.07
2023-03-05T14:07:42.196Z,8.06
2023-03-05T14:10:32.019Z,7.99
2023-03-05T14:13:08.462Z,7.89
2023-03-05T14:15:39.385Z,7.80
2023-03-05T14:18:20.023Z,7.77
2023-03-05T14:21:05.723Z,7.73
2023-03-05T14:23:45.368Z,7.69
2023-03-05T14:26:28.773Z,7.64
2023-03-05T14:29:04.925Z,7.66
2023-03-05T14:31:39.851Z,7.66
2023-03-05T14:34:10.743Z,7.69
2023-03-05T14:36:40.802Z,7.74
2023-03-05T14:39:10.700Z,7.78
2023-03-05T14:41:44.838Z,7.80
2023-03-05T14:44:19.798Z,7.72
2023-03-05T14:46:52.531Z,7.58
2023-03-05T14:49:22.328Z,7.45
2023-03-05T14:51:55.181Z,7.36
2023-03-05T14:54:27.935Z,7.30
2023-03-05T14:56:58.299Z,7.24
2023-03-05T14:59:30.955Z,7.21
2023-03-05T15:02:00.743Z,7.20
2023-03-05T15:04:30.470Z,7.22
2023-03-05T15:07:00.299Z,7.25
2023-03-05T15:09:30.490Z,7.29
2023-03-05T15:12:00.269Z,7.30
2023-03-05T15:14:34.162Z,7.34
2023-03-05T15:17:03.967Z,7.36
2023-03-05T15:19:33.751Z,7.37
2023-03-05T15:22:03.534Z,7.39
2023-03-05T15:24:33.317Z,7.40
2023-03-05T15:27:03.786Z,7.37
2023-03-05T15:29:36.432Z,7.34
2023-03-05T15:32:06.851Z,7.30
2023-03-05T15:34:36.777Z,7.30
2023-03-05T15:37:07.356Z,7.30
2023-03-05T15:39:37.152Z,7.30
2023-03-05T15:42:07.991Z,7.24
2023-03-05T15:44:40.541Z,7.20
2023-03-05T15:47:10.502Z,7.16
2023-03-05T15:49:40.280Z,7.10
2023-03-05T15:52:10.143Z,7.01
2023-03-05T15:54:39.984Z,6.96
2023-03-05T15:57:16.736Z,6.93
2023-03-05T15:59:49.118Z,6.90
2023-03-05T16:02:18.948Z,6.92
2023-03-05T16:04:48.850Z,6.94
2023-03-05T16:07:24.719Z,6.93
2023-03-05T16:09:56.262Z,6.94
2023-03-05T16:12:29.244Z,6.92
2023-03-05T16:15:01.814Z,6.93
2023-03-05T16:17:31.844Z,6.92
2023-03-05T16:20:01.788Z,6.96
2023-03-05T16:22:31.585Z,6.97
2023-03-05T16:25:01.487Z,7.02
2023-03-05T16:27:32.227Z,7.06
2023-03-05T16:30:04.832Z,7.10
2023-03-05T16:32:34.788Z,7.13
2023-03-05T16:35:04.707Z,7.15
2023-03-05T16:37:34.502Z,7.18
2023-03-05T16:40:04.426Z,7.16
2023-03-05T16:42:34.243Z,7.15
2023-03-05T16:45:07.669Z,7.15
2023-03-05T16:47:37.998Z,7.14
2023-03-05T16:50:09.455Z,7.12
2023-03-05T16:52:39.412Z,7.09
2023-03-05T16:55:09.513Z,7.07
2023-03-05T16:57:41.528Z,7.05
2023-03-05T17:00:15.517Z,7.02
2023-03-05T17:02:45.907Z,7.00
2023-03-05T17:05:15.962Z,6.98
2023-03-05T17:07:45.879Z,6.95
2023-03-05T17:10:18.762Z,6.89
2023-03-05T17:12:53.120Z,6.80
2023-03-05T17:15:25.653Z,6.75
2023-03-05T17:17:55.475Z,6.70
2023-03-05T17:20:25.460Z,6.64
2023-03-05T17:22:55.483Z,6.59
2023-03-05T17:25:25.455Z,6.57
2023-03-05T17:27:55.380Z,6.54
2023-03-05T17:30:28.435Z,6.54
2023-03-05T17:32:59.837Z,6.53
2023-03-05T17:35:30.067Z,6.51
2023-03-05T17:38:00.140Z,6.49
2023-03-05T17:40:30.007Z,6.44
2023-03-05T17:42:59.925Z,6.43
2023-03-05T17:45:33.341Z,6.39
2023-03-05T17:48:03.664Z,6.37
2023-03-05T17:50:33.594Z,6.34
2023-03-05T17:53:03.963Z,6.35
2023-03-05T17:55:34.045Z,6.34
2023-03-05T17:58:03.889Z,6.33
2023-03-05T18:00:36.964Z,6.29
2023-03-05T18:03:07.436Z,6.26
2023-03-05T18:05:37.367Z,6.23
2023-03-05T18:08:07.789Z,6.21
2023-03-05T18:10:37.835Z,6.18
2023-03-05T18:13:07.589Z,6.14
2023-03-05T18:15:41.924Z,6.11
2023-03-05T18:18:11.674Z,6.06
2023-03-05T18:20:41.912Z,6.03
2023-03-05T18:23:12.261Z,6.01
2023-03-05T18:25:42.235Z,5.97
2023-03-05T18:28:13.339Z,5.95
2023-03-05T18:30:47.782Z,5.92
2023-03-05T18:33:22.488Z,5.89
2023-03-05T18:35:52.999Z,5.83
2023-03-05T18:38:23.190Z,5.81
2023-03-05T18:40:54.005Z,5.80
2023-03-05T18:43:24.924Z,5.78
2023-03-05T18:45:59.181Z,5.75
2023-03-05T18:48:31.268Z,5.75
2023-03-05T18:51:02.145Z,5.74
2023-03-05T18:53:32.255Z,5.74
2023-03-05T18:56:02.059Z,5.74
2023-03-05T18:58:32.610Z,5.74
2023-03-05T19:01:05.334Z,5.71
2023-03-05T19:03:35.247Z,5.70
2023-03-05T19:06:07.452Z,5.68
2023-03-05T19:08:37.506Z,5.67
2023-03-05T19:11:17.520Z,5.67
2023-03-05T19:13:54.212Z,5.64
2023-03-05T19:16:30.531Z,5.62
2023-03-05T19:19:06.087Z,5.63
2023-03-05T19:21:36.035Z,5.64
2023-03-05T19:24:06.080Z,5.62
2023-03-05T19:26:36.076Z,5.63
2023-03-05T19:29:06.604Z,5.63
2023-03-05T19:31:39.617Z,5.63
2023-03-05T19:34:09.636Z,5.64
2023-03-05T19:36:44.314Z,5.63
2023-03-05T19:39:14.248Z,5.64
2023-03-05T19:41:44.342Z,5.63
2023-03-05T19:44:27.084Z,5.61
2023-03-05T19:47:04.974Z,5.59
2023-03-05T19:49:34.949Z,5.59
2023-03-05T19:52:06.314Z,5.58
2023-03-05T19:54:36.493Z,5.56
2023-03-05T19:57:07.157Z,5.56
2023-03-05T19:59:36.910Z,5.54
2023-03-05T20:02:09.287Z,5.54
2023-03-05T20:04:39.027Z,5.53
2023-03-05T20:07:11.311Z,5.52
2023-03-05T20:09:41.076Z,5.52
2023-03-05T20:12:11.524Z,5.51
2023-03-05T20:14:41.391Z,5.50
2023-03-05T20:17:13.930Z,5.49
2023-03-05T20:19:43.702Z,5.47
2023-03-05T20:22:13.641Z,5.44
2023-03-05T20:24:43.397Z,5.44
2023-03-05T20:27:13.157Z,5.45
2023-03-05T20:29:42.897Z,5.44
2023-03-05T20:32:16.826Z,5.43
2023-03-05T20:34:46.587Z,5.41
2023-03-05T20:37:16.329Z,5.42
2023-03-05T20:39:46.131Z,5.42
2023-03-05T20:42:16.021Z,5.42
2023-03-05T20:44:45.865Z,5.42
2023-03-05T20:47:32.383Z,5.42
2023-03-05T20:50:05.184Z,5.40
2023-03-05T20:52:37.306Z,5.40
2023-03-05T20:55:08.088Z,5.40
2023-03-05T20:57:37.928Z,5.40
2023-03-05T21:00:09.174Z,5.40
2023-03-05T21:02:41.978Z,5.42
2023-03-05T21:05:12.745Z,5.43
2023-03-05T21:07:42.538Z,5.43
2023-03-05T21:10:14.212Z,5.41
2023-03-05T21:12:46.255Z,5.40
2023-03-05T21:15:18.071Z,5.41
2023-03-05T21:17:50.651Z,5.42
2023-03-05T21:20:25.033Z,5.41
2023-03-05T21:22:57.071Z,5.44
2023-03-05T21:25:28.985Z,5.47
2023-03-05T21:28:01.177Z,5.50
2023-03-05T21:30:34.461Z,5.51
2023-03-05T21:33:09.026Z,5.53
2023-03-05T21:35:39.811Z,5.47
2023-03-05T21:38:11.282Z,5.42
2023-03-05T21:40:45.849Z,5.39
2023-03-05T21:43:17.595Z,5.33
2023-03-05T21:45:47.953Z,5.30
2023-03-05T21:48:22.206Z,5.25
2023-03-05T21:50:52.538Z,5.19
2023-03-05T21:53:27.279Z,5.13
2023-03-05T21:56:11.986Z,5.11
2023-03-05T21:58:41.865Z,5.09
2023-03-05T22:01:18.612Z,5.07
2023-03-05T22:03:52.237Z,5.06
2023-03-05T22:06:22.957Z,5.05
2023-03-05T22:08:55.247Z,5.03
2023-03-05T22:11:25.177Z,4.94
2023-03-05T22:13:57.764Z,4.82
2023-03-05T22:16:29.699Z,4.73
2023-03-05T22:19:02.481Z,4.72
2023-03-05T22:21:32.758Z,4.70
2023-03-05T22:24:04.224Z,4.69
2023-03-05T22:26:37.763Z,4.72
2023-03-05T22:29:08.864Z,4.74
2023-03-05T22:31:39.147Z,4.78
2023-03-05T22:34:11.868Z,4.82
2023-03-05T22:36:41.678Z,4.87
2023-03-05T22:39:12.432Z,4.92
2023-03-05T22:41:44.323Z,4.95
2023-03-05T22:44:14.098Z,4.97
2023-03-05T22:46:48.439Z,4.98
2023-03-05T22:49:20.872Z,4.96
2023-03-05T22:51:50.767Z,4.89
2023-03-05T22:54:20.503Z,4.84
2023-03-05T22:56:50.246Z,4.79
2023-03-05T22:59:20.058Z,4.76
2023-03-05T23:01:49.985Z,4.73
2023-03-05T23:04:39.098Z,4.72
2023-03-05T23:07:09.572Z,4.71
2023-03-05T23:09:41.822Z,4.70
2023-03-05T23:12:12.310Z,4.66
2023-03-05T23:14:43.648Z,4.64
2023-03-05T23:17:13.402Z,4.65
2023-03-05T23:19:45.981Z,4.67
2023-03-05T23:22:16.795Z,4.69
2023-03-05T23:24:46.606Z,4.72
2023-03-05T23:27:18.844Z,4.74
2023-03-05T23:30:04.703Z,4.71
2023-03-05T23:32:34.697Z,4.68
2023-03-05T23:35:10.569Z,4.67
2023-03-05T23:37:40.540Z,4.67
2023-03-05T23:40:17.477Z,4.72
2023-03-05T23:42:48.325Z,4.76
2023-03-05T23:45:20.182Z,4.83
2023-03-05T23:47:51.517Z,4.87
2023-03-05T23:50:27.926Z,4.92
2023-03-05T23:52:59.488Z,4.94
2023-03-05T23:55:33.130Z,4.97
2023-03-05T23:58:20.614Z,5.01
